Time;durP1;ratioP1;P1;durP2;ratioP2;P2;SDS_P1;SDS_P2;PMS_P1;PMS_P2;Temp;Humidity;BMP_temperature;BMP_pressure;BME280_temperature;BME280_humidity;BME280_pressure;Samples;Min_cycle;Max_cycle;Signal;HPM_P1;HPM_P2
2022/01/19 00:00:44;;;;;;;12.83;4.80;;;;;;;-2.23;100.00;100485.31;4980786;28;20069;-58
2022/01/19 00:03:10;;;;;;;12.57;5.07;;;;;;;-2.25;100.00;100488.50;4981933;28;20037;-57
2022/01/19 00:05:36;;;;;;;13.13;5.43;;;;;;;-2.23;100.00;100492.84;4981739;28;20525;-57
2022/01/19 00:08:02;;;;;;;7.33;4.20;;;;;;;-2.28;100.00;100486.66;4985238;28;20173;-57
2022/01/19 00:10:28;;;;;;;11.77;3.97;;;;;;;-2.30;100.00;100485.72;4981341;28;20022;-58
2022/01/19 00:12:58;;;;;;;8.70;4.03;;;;;;;-2.37;100.00;100494.50;4982684;28;20026;-58
2022/01/19 00:15:25;;;;;;;9.97;3.27;;;;;;;-2.38;100.00;100497.78;4983214;28;20515;-56
2022/01/19 00:17:57;;;;;;;13.83;4.20;;;;;;;-2.45;100.00;100494.78;4982243;28;20030;-57
2022/01/19 00:20:24;;;;;;;7.63;5.23;;;;;;;-2.47;100.00;100487.19;4983324;28;20034;-58
2022/01/19 00:22:50;;;;;;;8.37;4.67;;;;;;;-2.46;100.00;100490.56;4984041;28;20845;-57
2022/01/19 00:25:16;;;;;;;9.93;3.77;;;;;;;-2.42;100.00;100495.00;4984581;28;20031;-55
2022/01/19 00:27:41;;;;;;;12.03;5.13;;;;;;;-2.37;100.00;100501.16;4980822;28;20841;-58
2022/01/19 00:30:07;;;;;;;14.50;6.27;;;;;;;-2.43;100.00;100505.81;4980145;28;20574;-58
2022/01/19 00:32:33;;;;;;;12.70;6.47;;;;;;;-2.45;100.00;100508.22;4982605;28;20652;-57
2022/01/19 00:34:59;;;;;;;14.47;6.00;;;;;;;-2.52;100.00;100507.75;4985201;28;20038;-60
2022/01/19 00:37:25;;;;;;;10.73;6.43;;;;;;;-2.51;100.00;100515.38;4983587;28;20038;-57
2022/01/19 00:39:51;;;;;;;10.40;4.77;;;;;;;-2.57;100.00;100516.63;4980366;28;20026;-58
2022/01/19 00:42:17;;;;;;;9.30;5.10;;;;;;;-2.56;100.00;100510.84;4970305;28;20077;-56
2022/01/19 00:44:42;;;;;;;16.60;5.17;;;;;;;-2.55;100.00;100510.06;4979903;28;20042;-57
2022/01/19 00:47:07;;;;;;;8.63;4.40;;;;;;;-2.58;100.00;100513.25;4980592;28;20112;-59
2022/01/19 00:49:33;;;;;;;13.80;5.60;;;;;;;-2.60;100.00;100513.94;4979343;28;20667;-56
2022/01/19 00:51:58;;;;;;;13.20;4.70;;;;;;;-2.59;100.00;100508.16;4980549;28;20073;-57
2022/01/19 00:54:24;;;;;;;10.60;4.23;;;;;;;-2.61;100.00;100512.19;4982270;28;20076;-57
2022/01/19 00:56:49;;;;;;;11.27;4.63;;;;;;;-2.55;100.00;100513.47;4980310;28;20057;-58
2022/01/19 00:59:14;;;;;;;12.87;4.73;;;;;;;-2.53;100.00;100506.88;4980514;28;20073;-56
2022/01/19 01:01:41;;;;;;;15.10;5.00;;;;;;;-2.49;100.00;100501.28;4982766;28;20038;-58
2022/01/19 01:04:07;;;;;;;7.50;4.90;;;;;;;-2.40;100.00;100478.38;4982884;28;20944;-58
2022/01/19 01:06:32;;;;;;;12.77;5.03;;;;;;;-2.35;100.00;100480.41;4979548;28;20034;-57
2022/01/19 01:08:58;;;;;;;9.83;4.43;;;;;;;-2.36;100.00;100477.78;4980579;28;20548;-56
2022/01/19 01:11:29;;;;;;;22.13;5.07;;;;;;;-2.35;100.00;100474.50;4982569;28;20030;-57
2022/01/19 01:19:15;;;;;;;10.23;4.00;;;;;;;-2.23;100.00;100475.25;4998238;28;20038;-58
2022/01/19 01:21:40;;;;;;;8.77;4.77;;;;;;;-2.33;100.00;100463.78;4999344;28;20037;-57
2022/01/19 01:24:06;;;;;;;7.30;4.60;;;;;;;-2.41;100.00;100452.38;4997109;28;20523;-57
2022/01/19 01:26:31;;;;;;;13.43;5.37;;;;;;;-2.41;100.00;100442.34;4996060;28;20052;-58
2022/01/19 01:28:56;;;;;;;11.70;4.10;;;;;;;-2.46;100.00;100443.69;4998299;28;20042;-58
2022/01/19 01:31:22;;;;;;;13.57;4.13;;;;;;;-2.53;100.00;100445.75;4998795;28;20046;-58
2022/01/19 01:33:47;;;;;;;11.50;4.30;;;;;;;-2.60;100.00;100429.47;4996029;28;20104;-58
2022/01/19 01:36:13;;;;;;;9.03;3.90;;;;;;;-2.62;100.00;100412.53;4996301;28;20872;-57
2022/01/19 01:38:39;;;;;;;11.33;5.10;;;;;;;-2.66;100.00;100415.66;5000826;28;20030;-57
2022/01/19 01:41:06;;;;;;;10.63;4.33;;;;;;;-2.65;100.00;100414.88;4998268;28;20038;-57
2022/01/19 01:43:31;;;;;;;9.67;4.03;;;;;;;-2.68;100.00;100413.06;4997266;28;20833;-58
2022/01/19 01:46:03;;;;;;;7.10;4.17;;;;;;;-2.72;100.00;100422.81;5000088;28;20037;-57
2022/01/19 01:48:28;;;;;;;13.70;4.10;;;;;;;-2.74;100.00;100421.84;5003662;28;20034;-57
2022/01/19 01:53:38;;;;;;;9.43;4.23;;;;;;;-2.65;100.00;100427.44;5002661;28;20036;-56
2022/01/19 01:56:16;;;;;;;7.93;3.73;;;;;;;-2.72;100.00;100423.69;4991646;28;20050;-57
2022/01/19 01:58:44;;;;;;;14.30;4.00;;;;;;;-2.72;100.00;100422.81;4985909;28;20058;-55
2022/01/19 02:01:10;;;;;;;11.57;4.13;;;;;;;-2.68;100.00;100418.06;4983828;28;20042;-56
2022/01/19 02:03:38;;;;;;;6.70;3.80;;;;;;;-2.58;100.00;100406.94;4983087;28;20694;-54
2022/01/19 02:08:44;;;;;;;10.23;4.13;;;;;;;-2.65;100.00;100383.13;4987644;28;20046;-58
2022/01/19 02:15:50;;;;;;;13.87;4.40;;;;;;;-2.58;100.00;100376.81;4986821;28;20028;-59
2022/01/19 02:23:09;;;;;;;10.40;4.33;;;;;;;-2.88;100.00;100351.59;4985028;28;20672;-57
2022/01/19 02:25:42;;;;;;;4.80;3.30;;;;;;;-2.96;100.00;100345.22;4984921;28;20132;-57
2022/01/19 02:36:36;;;;;;;8.53;3.50;;;;;;;-2.85;100.00;100334.22;4985547;28;20045;-57
2022/01/19 02:41:47;;;;;;;7.10;3.20;;;;;;;-2.79;100.00;100326.19;4982057;28;20133;-59
2022/01/19 02:44:26;;;;;;;10.43;3.47;;;;;;;-2.70;100.00;100325.88;4984236;28;20038;-58
2022/01/19 02:49:22;;;;;;;11.20;3.33;;;;;;;-2.55;100.00;100316.78;4982055;28;20038;-57
2022/01/19 02:51:52;;;;;;;8.43;3.50;;;;;;;-2.56;100.00;100315.91;4983328;28;20038;-55
2022/01/19 02:54:23;;;;;;;10.67;3.33;;;;;;;-2.57;100.00;100310.78;4984358;28;20116;-58
2022/01/19 02:56:55;;;;;;;7.90;3.83;;;;;;;-2.58;100.00;100302.38;4984024;28;20500;-58
2022/01/19 03:09:42;;;;;;;11.17;3.77;;;;;;;-2.83;100.00;100285.00;4982415;28;20038;-58
2022/01/19 03:12:09;;;;;;;6.67;3.23;;;;;;;-2.86;100.00;100289.84;4982856;28;20121;-58
2022/01/19 03:14:34;;;;;;;10.23;4.00;;;;;;;-2.84;100.00;100283.25;4984809;28;20113;-57
2022/01/19 03:17:00;;;;;;;12.37;4.43;;;;;;;-2.85;100.00;100278.16;4985019;28;20189;-57
2022/01/19 03:19:27;;;;;;;9.97;4.67;;;;;;;-2.74;100.00;100266.25;4981712;28;20038;-58
2022/01/19 03:21:53;;;;;;;10.50;4.73;;;;;;;-2.78;100.00;100258.53;4981840;28;20037;-58
2022/01/19 03:24:19;;;;;;;9.03;4.40;;;;;;;-2.73;100.00;100257.94;4984019;28;20026;-58
2022/01/19 03:26:45;;;;;;;14.60;4.70;;;;;;;-2.72;100.00;100259.69;4982807;28;20261;-58
2022/01/19 03:29:11;;;;;;;6.97;3.40;;;;;;;-2.79;100.00;100259.31;4982012;28;20038;-58
2022/01/19 03:31:36;;;;;;;9.00;3.40;;;;;;;-2.88;100.00;100256.25;4983024;28;20085;-58
2022/01/19 03:34:06;;;;;;;10.70;4.07;;;;;;;-2.89;100.00;100262.06;4999178;28;20042;-57
2022/01/19 03:36:32;;;;;;;6.87;3.00;;;;;;;-2.93;100.00;100255.09;4981834;28;20041;-58
2022/01/19 03:38:58;;;;;;;7.30;2.83;;;;;;;-2.96;100.00;100249.91;4980618;28;20033;-57
2022/01/19 03:41:23;;;;;;;7.43;3.23;;;;;;;-2.94;100.00;100245.84;4983916;28;20034;-56
2022/01/19 03:43:49;;;;;;;6.70;3.43;;;;;;;-2.91;100.00;100246.03;4983653;28;20026;-57
2022/01/19 03:46:15;;;;;;;10.70;3.67;;;;;;;-2.89;100.00;100262.06;4982647;28;20552;-58
2022/01/19 03:48:58;;;;;;;8.03;4.00;;;;;;;-2.87;100.00;100258.00;4981063;28;20675;-58
2022/01/19 03:51:24;;;;;;;8.23;3.63;;;;;;;-2.95;100.00;100245.75;4983378;28;20058;-57
2022/01/19 03:53:49;;;;;;;8.53;3.67;;;;;;;-2.98;100.00;100248.09;4982899;28;20065;-58
2022/01/19 03:56:17;;;;;;;10.30;4.13;;;;;;;-3.03;100.00;100251.97;4981152;28;20565;-57
2022/01/19 03:58:43;;;;;;;8.03;3.17;;;;;;;-3.05;100.00;100240.94;4981178;28;20054;-57
2022/01/19 04:01:09;;;;;;;13.67;4.30;;;;;;;-3.01;100.00;100240.41;4983055;28;20036;-58
2022/01/19 04:04:01;;;;;;;6.13;3.40;;;;;;;-3.04;100.00;100242.69;4982891;28;20120;-57
2022/01/19 04:06:30;;;;;;;8.23;5.17;;;;;;;-3.08;100.00;100228.22;4979722;28;20620;-57
2022/01/19 04:08:56;;;;;;;8.97;5.23;;;;;;;-3.10;100.00;100232.31;4980014;28;20172;-58
2022/01/19 04:11:23;;;;;;;11.27;5.07;;;;;;;-3.04;100.00;100238.53;4982485;28;20027;-58
2022/01/19 04:14:21;;;;;;;10.20;5.57;;;;;;;-3.05;100.00;100236.81;4982853;28;20528;-55
2022/01/19 04:16:43;;;;;;;11.47;5.40;;;;;;;-3.00;100.00;100235.44;4980782;28;20054;-59
2022/01/19 04:19:30;;;;;;;7.93;3.60;;;;;;;-3.00;100.00;100230.44;4980838;28;20868;-57
2022/01/19 04:21:58;;;;;;;9.87;3.57;;;;;;;-3.02;100.00;100216.06;4984205;28;20030;-59
2022/01/19 04:24:24;;;;;;;11.37;4.73;;;;;;;-2.97;100.00;100219.72;4980947;28;20472;-56
2022/01/19 04:29:50;;;;;;;14.60;4.80;;;;;;;-2.82;100.00;100211.47;4980794;28;20742;-58
2022/01/19 04:32:21;;;;;;;18.33;7.83;;;;;;;-2.88;100.00;100201.03;4979841;28;20872;-58
2022/01/19 04:34:48;;;;;;;21.30;7.87;;;;;;;-2.87;100.00;100205.28;4978075;28;20060;-59
2022/01/19 05:04:12;;;;;;;5.47;3.43;;;;;;;-3.13;100.00;100161.88;4977945;28;20072;-59
2022/01/19 05:06:42;;;;;;;6.97;3.38;;;;;;;-3.15;100.00;100156.78;4983659;28;20031;-59
2022/01/19 05:14:32;;;;;;;10.53;4.07;;;;;;;-3.15;100.00;100148.41;4980581;28;20096;-58
2022/01/19 05:16:58;;;;;;;8.53;3.93;;;;;;;-3.24;100.00;100153.72;4982471;28;20039;-56
2022/01/19 05:19:23;;;;;;;10.17;4.83;;;;;;;-3.24;100.00;100152.09;4984028;28;20388;-59
2022/01/19 05:21:49;;;;;;;11.03;3.40;;;;;;;-3.26;100.00;100155.28;4981265;28;20049;-55
2022/01/19 05:24:14;;;;;;;13.23;3.60;;;;;;;-3.28;100.00;100147.69;4982201;28;20037;-58
2022/01/19 05:26:40;;;;;;;9.30;3.83;;;;;;;-3.33;100.00;100149.03;4985162;28;20315;-57
2022/01/19 05:29:05;;;;;;;6.57;3.40;;;;;;;-3.37;100.00;100142.13;4981405;28;20572;-59
2022/01/19 05:31:31;;;;;;;9.53;3.97;;;;;;;-3.39;100.00;100147.78;4981283;28;20459;-57
2022/01/19 05:33:56;;;;;;;10.30;4.80;;;;;;;-3.46;100.00;100145.69;4981669;28;20038;-58
2022/01/19 05:36:22;;;;;;;15.70;4.07;;;;;;;-3.50;100.00;100138.78;4984131;28;20124;-59
2022/01/19 05:38:47;;;;;;;9.23;4.83;;;;;;;-3.44;100.00;100130.00;4982226;28;20046;-56
2022/01/19 05:41:13;;;;;;;10.90;4.33;;;;;;;-3.49;100.00;100126.34;4982466;28;20765;-56
2022/01/19 05:43:39;;;;;;;9.83;4.47;;;;;;;-3.58;100.00;100117.41;4981860;28;20516;-57
2022/01/19 05:46:05;;;;;;;8.60;5.53;;;;;;;-3.53;100.00;100133.59;4984710;28;20033;-57
2022/01/19 05:48:30;;;;;;;10.50;4.87;;;;;;;-3.59;100.00;100144.09;4983146;28;20030;-58
2022/01/19 05:50:56;;;;;;;10.13;4.50;;;;;;;-3.62;100.00;100133.88;4980496;28;20026;-60
2022/01/19 05:53:21;;;;;;;13.07;5.80;;;;;;;-3.70;100.00;100125.03;4981096;28;20038;-57
2022/01/19 05:55:47;;;;;;;13.07;4.47;;;;;;;-3.72;100.00;100122.44;4984465;28;20053;-58
2022/01/19 05:58:13;;;;;;;11.97;5.10;;;;;;;-3.73;100.00;100123.19;4983574;28;20097;-57
2022/01/19 06:00:38;;;;;;;11.97;4.83;;;;;;;-3.75;100.00;100137.28;4983934;28;20044;-58
2022/01/19 06:03:04;;;;;;;7.27;4.07;;;;;;;-3.82;100.00;100126.81;4989257;28;20433;-58
2022/01/19 06:05:32;;;;;;;12.90;5.47;;;;;;;-3.91;100.00;100129.59;4986717;28;20030;-56
2022/01/19 06:08:16;;;;;;;11.23;6.10;;;;;;;-3.95;100.00;100125.19;4983591;28;20034;-53
2022/01/19 06:10:43;;;;;;;9.23;5.47;;;;;;;-3.96;100.00;100120.06;4986634;28;20061;-56
2022/01/19 06:13:09;;;;;;;15.53;8.10;;;;;;;-3.93;100.00;100112.72;4990007;28;20464;-55
2022/01/19 06:15:34;;;;;;;14.77;7.20;;;;;;;-3.92;100.00;100124.50;4986948;28;20042;-57
2022/01/19 06:18:00;;;;;;;15.07;6.03;;;;;;;-3.93;100.00;100126.13;4985175;28;20030;-57
2022/01/19 06:20:26;;;;;;;9.13;7.13;;;;;;;-3.93;100.00;100115.25;4982498;28;20038;-56
2022/01/19 06:22:53;;;;;;;12.80;6.63;;;;;;;-3.94;100.00;100124.38;4987271;28;20053;-54
2022/01/19 06:25:18;;;;;;;9.13;5.23;;;;;;;-3.96;100.00;100115.94;4984872;28;20129;-57
2022/01/19 06:27:44;;;;;;;15.83;5.93;;;;;;;-3.99;100.00;100107.38;4982514;28;20042;-56
2022/01/19 06:30:09;;;;;;;10.90;4.80;;;;;;;-4.01;100.00;100113.91;4986893;28;20428;-54
2022/01/19 06:32:36;;;;;;;14.17;5.53;;;;;;;-3.99;100.00;100117.38;4991449;28;20469;-58
2022/01/19 06:35:02;;;;;;;10.70;6.13;;;;;;;-4.02;100.00;100109.66;4990747;28;20039;-58
2022/01/19 06:37:27;;;;;;;16.10;5.37;;;;;;;-4.05;100.00;100115.34;4986753;28;20070;-55
2022/01/19 06:39:53;;;;;;;6.37;4.83;;;;;;;-4.04;100.00;100119.59;4989611;28;20041;-58
2022/01/19 06:42:19;;;;;;;14.03;5.00;;;;;;;-4.01;100.00;100111.41;4991857;28;20038;-58
2022/01/19 06:44:44;;;;;;;13.30;5.13;;;;;;;-4.06;100.00;100112.75;4990960;28;20038;-59
2022/01/19 06:47:09;;;;;;;16.23;7.30;;;;;;;-4.02;100.00;100118.03;4987556;28;20033;-58
2022/01/19 06:49:35;;;;;;;15.70;6.50;;;;;;;-4.02;100.00;100118.03;4988917;28;20180;-57
2022/01/19 06:52:01;;;;;;;16.33;6.97;;;;;;;-3.98;100.00;100106.56;4991726;28;20811;-58
2022/01/19 06:54:27;;;;;;;19.93;6.63;;;;;;;-4.00;100.00;100091.47;4989936;28;20046;-58
2022/01/19 06:56:52;;;;;;;15.30;6.57;;;;;;;-3.92;100.00;100087.78;4985145;28;20030;-59
2022/01/19 06:59:18;;;;;;;10.10;6.07;;;;;;;-3.89;100.00;100082.09;4987726;28;20088;-57
2022/01/19 07:01:43;;;;;;;14.97;7.43;;;;;;;-3.83;100.00;100079.97;4988485;28;20179;-56
2022/01/19 07:04:11;;;;;;;12.30;6.33;;;;;;;-3.71;100.00;100079.06;4989369;28;20037;-59
2022/01/19 07:06:37;;;;;;;17.33;5.37;;;;;;;-3.51;100.00;100089.41;4985482;28;20069;-57
2022/01/19 07:09:03;;;;;;;15.40;5.20;;;;;;;-3.42;100.00;100080.81;4989068;28;20062;-58
2022/01/19 07:11:28;;;;;;;31.53;11.67;;;;;;;-3.35;100.00;100065.34;4991394;28;20089;-58
2022/01/19 07:13:54;;;;;;;31.30;12.80;;;;;;;-3.27;100.00;100069.16;4987378;28;20038;-58
2022/01/19 07:16:20;;;;;;;34.90;12.97;;;;;;;-3.25;100.00;100057.59;4983056;28;20169;-55
2022/01/19 07:18:45;;;;;;;26.33;9.23;;;;;;;-3.18;100.00;100058.78;4986246;28;20440;-57
2022/01/19 07:21:11;;;;;;;23.67;10.13;;;;;;;-3.08;100.00;100055.19;4987383;28;20368;-59
2022/01/19 07:23:37;;;;;;;20.77;8.37;;;;;;;-2.98;100.00;100052.44;4986221;28;20045;-59
2022/01/19 07:26:02;;;;;;;20.87;7.10;;;;;;;-2.91;100.00;100052.00;4986597;28;20061;-59
2022/01/19 07:28:28;;;;;;;11.47;5.23;;;;;;;-2.80;100.00;100044.28;4984931;28;20038;-58
2022/01/19 07:30:53;;;;;;;12.73;6.33;;;;;;;-2.68;100.00;100043.25;4987262;28;20038;-59
2022/01/19 07:33:18;;;;;;;15.33;6.83;;;;;;;-2.53;100.00;100037.44;4983087;28;20026;-60
2022/01/19 07:35:45;;;;;;;32.13;11.50;;;;;;;-2.44;100.00;100034.56;4983280;28;20046;-58
2022/01/19 07:38:11;;;;;;;55.47;22.47;;;;;;;-2.33;100.00;100041.88;4985283;28;20026;-58
2022/01/19 07:40:37;;;;;;;53.67;20.97;;;;;;;-2.18;100.00;100034.31;4985818;28;20033;-58
2022/01/19 07:43:02;;;;;;;39.10;17.20;;;;;;;-1.93;100.00;100047.41;4984233;28;20268;-58
2022/01/19 07:45:28;;;;;;;30.93;12.97;;;;;;;-1.87;100.00;100027.59;4983069;28;20539;-58
2022/01/19 07:47:53;;;;;;;25.97;11.57;;;;;;;-1.78;100.00;100019.69;4986125;28;20050;-59
2022/01/19 07:50:19;;;;;;;27.90;11.47;;;;;;;-1.69;100.00;100021.81;4986662;28;20070;-59
2022/01/19 07:52:45;;;;;;;20.30;11.23;;;;;;;-1.47;100.00;100022.13;4982705;28;20042;-58
2022/01/19 07:55:10;;;;;;;20.33;9.77;;;;;;;-1.46;100.00;100016.31;4981665;28;20385;-57
2022/01/19 07:57:37;;;;;;;16.73;8.77;;;;;;;-1.27;100.00;100021.47;4984868;28;20082;-57
2022/01/19 08:00:04;;;;;;;15.30;7.47;;;;;;;-1.07;100.00;100020.81;4985519;28;20133;-58
2022/01/19 08:02:33;;;;;;;16.30;8.33;;;;;;;-0.93;100.00;100016.44;4983863;28;20046;-56
2022/01/19 08:04:58;;;;;;;29.90;9.03;;;;;;;-0.86;100.00;100020.13;4982752;28;20033;-56
2022/01/19 08:07:24;;;;;;;19.27;9.60;;;;;;;-0.73;100.00;100005.69;4981363;28;20070;-58
2022/01/19 08:09:49;;;;;;;19.07;8.10;;;;;;;-0.53;100.00;100002.44;4984372;28;20093;-56
2022/01/19 08:12:15;;;;;;;14.33;6.17;;;;;;;-0.37;100.00;99996.44;4981365;28;20035;-57
2022/01/19 08:14:40;;;;;;;17.83;7.73;;;;;;;-0.21;100.00;100001.41;4980100;28;20062;-56
2022/01/19 08:17:06;;;;;;;11.77;6.60;;;;;;;-0.12;100.00;100001.81;4982638;28;20488;-55
2022/01/19 08:19:31;;;;;;;12.37;6.60;;;;;;;0.10;100.00;99992.69;4985691;28;20493;-56
2022/01/19 08:21:57;;;;;;;18.13;8.73;;;;;;;0.23;100.00;99982.34;4980967;28;20388;-58
2022/01/19 08:24:22;;;;;;;15.07;8.07;;;;;;;0.38;100.00;99988.06;4981891;28;20030;-57
2022/01/19 08:26:48;;;;;;;18.40;9.90;;;;;;;0.56;100.00;99982.91;4983902;28;20374;-58
2022/01/19 08:29:13;;;;;;;21.93;11.97;;;;;;;0.69;100.00;99980.97;4984487;28;20147;-59
2022/01/19 08:31:39;;;;;;;18.23;11.33;;;;;;;0.83;100.00;99969.81;4981475;28;20606;-59
2022/01/19 08:34:05;;;;;;;16.17;9.83;;;;;;;1.01;100.00;99971.34;4982041;28;20080;-59
2022/01/19 08:36:30;;;;;;;20.00;8.10;;;;;;;1.10;100.00;99972.59;4984916;28;20026;-56
2022/01/19 08:38:56;;;;;;;20.93;7.53;;;;;;;1.24;100.00;99980.69;4982227;28;20049;-58
2022/01/19 08:41:22;;;;;;;15.70;8.27;;;;;;;1.17;100.00;99981.25;4979783;28;20023;-59
2022/01/19 08:43:48;;;;;;;24.23;8.57;;;;;;;1.30;100.00;99978.41;4981402;28;20037;-58
2022/01/19 08:46:13;;;;;;;17.90;9.27;;;;;;;1.45;100.00;99979.00;4983855;28;20034;-58
2022/01/19 08:48:39;;;;;;;15.20;8.07;;;;;;;1.53;100.00;99977.63;4983166;28;20100;-58
2022/01/19 08:51:04;;;;;;;14.13;7.30;;;;;;;1.53;100.00;99976.78;4982610;28;20030;-58
2022/01/19 08:53:32;;;;;;;14.53;5.20;;;;;;;1.60;100.00;99973.69;4982059;28;20034;-57
2022/01/19 08:55:57;;;;;;;9.87;3.70;;;;;;;1.63;100.00;99976.31;4984051;28;20029;-57
2022/01/19 08:58:23;;;;;;;12.50;4.57;;;;;;;1.73;100.00;99970.81;4982703;28;20496;-54
2022/01/19 09:00:48;;;;;;;15.10;6.43;;;;;;;1.78;100.00;99975.22;4981623;28;20038;-55
2022/01/19 09:03:16;;;;;;;11.60;5.47;;;;;;;1.82;100.00;99966.94;4980638;28;20030;-58
2022/01/19 09:05:42;;;;;;;9.77;5.47;;;;;;;1.95;100.00;99967.41;4981036;28;20038;-58
2022/01/19 09:08:08;;;;;;;11.00;6.23;;;;;;;1.92;100.00;99965.63;4982225;28;20536;-58
2022/01/19 09:10:34;;;;;;;12.27;6.70;;;;;;;1.96;100.00;99953.94;4984940;28;20030;-59
2022/01/19 09:12:59;;;;;;;18.40;6.93;;;;;;;1.94;100.00;99950.50;4980918;28;20084;-55
2022/01/19 09:15:25;;;;;;;10.57;5.77;;;;;;;2.06;100.00;99945.88;4979971;28;20066;-55
2022/01/19 09:17:52;;;;;;;17.03;6.87;;;;;;;2.21;100.00;99949.81;4983180;28;20031;-55
2022/01/19 09:20:18;;;;;;;13.23;6.67;;;;;;;2.36;100.00;99944.44;4982548;28;20041;-57
2022/01/19 09:22:44;;;;;;;18.60;8.47;;;;;;;2.40;100.00;99941.22;4980450;28;20475;-57
2022/01/19 09:25:11;;;;;;;18.13;10.50;;;;;;;2.49;100.00;99940.66;4983143;28;20053;-55
2022/01/19 09:27:40;;;;;;;15.07;9.23;;;;;;;2.55;100.00;99935.78;4984203;28;20034;-58
2022/01/19 09:30:11;;;;;;;17.27;9.73;;;;;;;2.63;100.00;99932.69;4983076;28;20498;-58
2022/01/19 09:32:36;;;;;;;16.07;8.20;;;;;;;2.66;100.00;99932.81;4984215;28;20026;-59
2022/01/19 09:35:08;;;;;;;12.77;6.83;;;;;;;2.52;100.00;99921.38;4986634;28;20041;-58
2022/01/19 09:37:36;;;;;;;12.87;5.83;;;;;;;2.65;100.00;99926.03;4984186;28;20053;-59
2022/01/19 09:40:04;;;;;;;11.67;5.73;;;;;;;2.63;100.00;99927.63;4981983;28;20080;-57
2022/01/19 09:42:29;;;;;;;10.27;5.10;;;;;;;2.72;100.00;99925.41;4985143;28;20038;-59
2022/01/19 09:44:55;;;;;;;9.60;4.87;;;;;;;2.84;100.00;99917.38;4984959;28;20022;-57
2022/01/19 09:47:23;;;;;;;11.30;5.20;;;;;;;3.00;100.00;99924.66;4981660;28;20547;-58
2022/01/19 09:49:49;;;;;;;15.00;5.67;;;;;;;3.01;100.00;99905.25;4984794;28;20038;-58
2022/01/19 09:52:15;;;;;;;14.00;5.43;;;;;;;3.14;100.00;99898.06;4986200;28;20528;-59
2022/01/19 09:54:40;;;;;;;10.03;4.53;;;;;;;3.13;100.00;99891.28;4982777;28;20034;-59
2022/01/19 09:57:06;;;;;;;9.17;6.07;;;;;;;3.03;100.00;99878.28;4981345;28;20551;-57
2022/01/19 09:59:31;;;;;;;11.00;5.90;;;;;;;3.19;100.00;99881.31;4985668;28;20050;-59
2022/01/19 10:02:08;;;;;;;8.83;4.53;;;;;;;3.35;99.73;99871.66;4988113;28;20780;-57
2022/01/19 10:04:46;;;;;;;11.50;5.27;;;;;;;3.42;99.74;99863.41;4984231;28;20031;-58
2022/01/19 10:07:20;;;;;;;7.20;3.50;;;;;;;3.25;96.31;99875.59;4986524;28;20057;-58
2022/01/19 10:09:57;;;;;;;30.90;11.67;;;;;;;2.92;95.47;99865.31;4990986;28;20026;-55
2022/01/19 10:18:21;;;;;;;11.45;4.75;;;;;;;3.60;90.39;99842.00;4990809;28;20045;-57
2022/01/19 10:21:12;;;;;;;11.50;4.60;;;;;;;3.61;90.52;99825.94;4990254;28;20065;-58
2022/01/19 10:23:48;;;;;;;11.07;4.90;;;;;;;3.64;90.16;99820.13;4985089;28;20034;-56
2022/01/19 10:26:16;;;;;;;13.63;5.07;;;;;;;3.74;89.12;99814.47;4988952;28;20045;-58
2022/01/19 10:29:13;;;;;;;17.43;6.10;;;;;;;3.87;89.41;99813.97;4990477;28;20038;-54
2022/01/19 10:31:40;;;;;;;9.03;4.57;;;;;;;3.61;89.63;99805.66;4988110;28;20050;-57
2022/01/19 10:34:17;;;;;;;8.17;4.90;;;;;;;3.66;91.38;99782.97;4988100;28;20035;-54
2022/01/19 10:36:52;;;;;;;11.40;5.80;;;;;;;3.81;90.95;99774.91;4986471;28;20078;-54
2022/01/19 10:39:20;;;;;;;12.07;4.57;;;;;;;3.67;90.03;99772.88;4988548;28;20053;-54
2022/01/19 10:42:05;;;;;;;10.40;4.93;;;;;;;3.89;88.97;99769.22;4988373;28;20496;-53
2022/01/19 10:44:39;;;;;;;17.30;6.28;;;;;;;4.05;86.76;99771.31;4986211;28;20407;-57
2022/01/19 10:47:05;;;;;;;14.23;6.00;;;;;;;4.17;87.00;99765.69;4990007;28;20570;-56
2022/01/19 10:49:52;;;;;;;13.70;5.90;;;;;;;4.23;84.32;99752.31;4990703;28;20030;-58
2022/01/19 10:52:27;;;;;;;14.33;5.43;;;;;;;4.19;84.78;99730.22;4988135;28;20479;-59
2022/01/19 10:54:52;;;;;;;10.95;4.95;;;;;;;4.27;84.21;99731.25;4985578;28;20551;-59
2022/01/19 10:57:19;;;;;;;8.00;4.67;;;;;;;4.34;84.31;99721.28;5003460;28;20030;-58
2022/01/19 10:59:45;;;;;;;6.70;4.83;;;;;;;4.35;85.25;99720.47;4988487;28;20046;-55
2022/01/19 11:02:12;;;;;;;8.20;4.93;;;;;;;4.36;85.74;99701.00;4985673;28;20507;-55
2022/01/19 11:04:39;;;;;;;9.77;4.60;;;;;;;4.45;86.36;99699.53;4986784;28;20074;-58
2022/01/19 11:07:19;;;;;;;7.73;4.63;;;;;;;4.53;84.79;99692.09;4986839;28;20042;-56
2022/01/19 11:09:46;;;;;;;11.47;5.67;;;;;;;4.49;85.86;99683.56;4974617;28;20054;-58
2022/01/19 11:12:16;;;;;;;9.20;4.57;;;;;;;4.51;84.95;99679.34;4984375;28;20099;-57
2022/01/19 11:14:43;;;;;;;9.67;4.90;;;;;;;4.60;84.39;99679.56;4986405;28;20045;-57
2022/01/19 11:17:09;;;;;;;8.23;4.90;;;;;;;4.55;85.07;99670.97;4989357;28;20113;-59
2022/01/19 11:19:39;;;;;;;11.83;4.43;;;;;;;4.55;84.45;99662.50;4988359;28;20046;-59
2022/01/19 11:22:17;;;;;;;8.77;4.83;;;;;;;4.26;89.32;99656.78;4983560;28;20393;-57
2022/01/19 11:24:51;;;;;;;8.37;3.90;;;;;;;4.58;87.64;99655.78;4987805;28;20069;-58
2022/01/19 11:27:17;;;;;;;7.15;4.53;;;;;;;4.42;87.79;99638.53;4990198;28;20065;-58
2022/01/19 11:29:43;;;;;;;9.53;4.80;;;;;;;4.50;86.52;99639.53;4984520;28;20054;-58
2022/01/19 11:32:19;;;;;;;11.50;5.30;;;;;;;4.63;86.56;99640.66;4984796;28;20042;-56
2022/01/19 11:34:52;;;;;;;10.07;4.50;;;;;;;4.62;87.27;99630.50;4987260;28;20146;-57
2022/01/19 11:37:40;;;;;;;11.40;5.07;;;;;;;4.72;85.52;99625.59;4988706;28;20117;-58
2022/01/19 11:40:11;;;;;;;10.73;4.93;;;;;;;4.74;85.97;99612.94;4983196;28;20113;-57
2022/01/19 11:42:38;;;;;;;11.87;6.13;;;;;;;4.72;86.70;99595.13;4985701;28;20109;-57
2022/01/19 11:45:07;;;;;;;12.87;6.17;;;;;;;4.86;86.67;99605.56;4988826;28;20109;-56
2022/01/19 11:47:34;;;;;;;15.57;6.60;;;;;;;4.84;87.62;99587.75;4985780;28;20031;-57
2022/01/19 11:50:15;;;;;;;12.07;6.23;;;;;;;4.69;90.38;99589.13;4983162;28;20592;-56
2022/01/19 11:52:43;;;;;;;17.17;8.63;;;;;;;4.82;88.79;99589.41;4987761;28;20444;-52
2022/01/19 11:55:20;;;;;;;14.47;6.33;;;;;;;4.74;89.54;99588.41;4986911;28;20501;-56
2022/01/19 11:57:48;;;;;;;16.83;6.23;;;;;;;4.85;89.93;99579.31;4983328;28;20145;-57
2022/01/19 12:00:36;;;;;;;17.83;7.30;;;;;;;4.89;89.13;99578.53;4984490;28;20644;-54
2022/01/19 12:03:18;;;;;;;15.83;6.33;;;;;;;4.95;89.29;99568.50;4988352;28;20046;-57
2022/01/19 12:05:44;;;;;;;15.87;6.47;;;;;;;4.97;88.41;99563.41;4987800;28;20050;-54
2022/01/19 12:08:24;;;;;;;14.20;6.53;;;;;;;5.09;87.39;99562.81;4984829;28;20046;-58
2022/01/19 12:10:55;;;;;;;14.93;8.37;;;;;;;5.02;87.58;99556.75;4984090;28;20036;-57
2022/01/19 12:16:28;;;;;;;11.37;6.27;;;;;;;5.02;86.61;99533.88;4984102;28;20989;-54
2022/01/19 12:19:00;;;;;;;12.83;6.77;;;;;;;5.03;87.53;99526.28;4982877;28;20026;-56
2022/01/19 12:21:32;;;;;;;13.57;6.80;;;;;;;5.02;88.66;99527.09;4984706;28;20026;-55
2022/01/19 12:24:26;;;;;;;13.53;7.27;;;;;;;5.10;89.75;99527.22;4983891;28;20038;-56
2022/01/19 12:26:54;;;;;;;10.87;6.97;;;;;;;5.11;88.70;99512.84;4981143;28;20034;-60
2022/01/19 12:29:37;;;;;;;12.53;7.37;;;;;;;4.97;89.15;99508.38;4982088;28;20034;-58
2022/01/19 12:32:28;;;;;;;12.47;7.47;;;;;;;5.05;89.37;99504.28;4985858;28;20054;-53
2022/01/19 12:35:07;;;;;;;12.00;6.80;;;;;;;5.15;nan;99497.69;4983505;28;20045;-55
2022/01/19 12:37:32;;;;;;;16.50;7.07;;;;;;;5.23;88.89;99488.47;4983305;28;20042;-55
2022/01/19 12:40:01;;;;;;;16.40;7.73;;;;;;;5.27;88.44;99490.25;4989977;28;20041;-56
2022/01/19 12:42:41;;;;;;;17.20;8.83;;;;;;;5.17;90.36;99490.94;4988147;28;20034;-55
2022/01/19 12:45:19;;;;;;;12.40;8.00;;;;;;;5.24;90.54;99482.56;4999245;28;20088;-55
2022/01/19 12:47:51;;;;;;;16.33;8.57;;;;;;;5.29;89.95;99475.03;4986050;28;20038;-57
2022/01/19 12:50:16;;;;;;;16.13;8.03;;;;;;;5.27;90.52;99476.66;4985432;28;20030;-54
2022/01/19 12:52:44;;;;;;;11.20;8.20;;;;;;;5.29;89.99;99473.34;4988480;28;20480;-57